עמוד ראשי
METAR-TAF:

METAR-TAF

שדות תעופה :

Skagway, אלסקה, ארצות הברית

קו רוחב: 59-28N, קו אורך: 135-18W, גובה: 16מטר

תצפית מזג אוויר נוכחית

הדו"ח נערך לפני 1 שעות ו 14דקות, בשעה 09:53 UTC
רוח 8קשר מכיוון דרום-מערב
טמפרטורת 13 צלסיוס
לחות 35%
לחץ 1012 hPa
ראות: 16.1קילומטר
מעונן בגובה 3000רגל

METAR: PAGY 240953Z AUTO 23008KT 10SM OVC030 13/M02 A2987 RMK AO2 SLP116 T01331017 TSNO

זמן: 03:07 (11:07 UTC)

תחזית

הדו"ח נערך לפני 5 שעות ו 25דקות, בשעה 05:42 UTC
תחזית בתוקף מ 24 ב 06 UTC עד 25 ב 06 UTC
רוח 10קשר מכיוון דרום-מערב עם משבים עד 20קשר
ראות: 10קילומטר
מעונן בגובה 4000רגל
מ 24 ב 0800UTC
רוח 5קשר עם כיוונים משתנים
ראות: 10קילומטר
מעונן בגובה 2000רגל
מ 24 ב 2000UTC
רוח 13קשר מכיוון דרום/דרום-מערב
ראות: 10קילומטר
מעונן בגובה 3000רגל

TAF: PAGY 240542Z 2406/2506 23010G20KT P6SM OVC040 FM240800 VRB05KT P6SM OVC020 FM242000 21013KT P6SM OVC030 AMD NOT SKED

תצפיות ותחזיות מזג אוויר לגבי יותר מ- 4,000 שדות תעופה ברחבי העולם. דוחות METAR ו- TAF.

התחנות הזמינות מסומנות בנקודות צהובות ואדומות על גבי המפה.

העבר את העכבר לנקודה הצבעונית על מנת לראות את שם התחנה.

לאחר מכן, לחץ כדי לראות את תוכן ואת תחזיות מזג האוויר.

כדי לשנות את המפה: לחץ על הכפתורים הירוקים עם הפלוס השחור כדי להתקרב; על הכפתור הירוק עם המקף כדי להתרחק; או בחיצים הירוקים למפות סמוכות.


METAR-TAF: